sensor_id;sensor_type;location;lat;lon;timestamp;pressure;altitude;pressure_sealevel;temperature;humidity
39141;BME280;24875;48.436;10.298;2023-08-01T00:00:25;95403.41;;;20.47;100.00
39141;BME280;24875;48.436;10.298;2023-08-01T00:02:51;95391.13;;;20.51;100.00
39141;BME280;24875;48.436;10.298;2023-08-01T00:05:18;95389.47;;;20.45;100.00
39141;BME280;24875;48.436;10.298;2023-08-01T00:07:44;95382.50;;;20.44;100.00
39141;BME280;24875;48.436;10.298;2023-08-01T00:10:11;95380.38;;;20.46;100.00
39141;BME280;24875;48.436;10.298;2023-08-01T00:12:37;95377.41;;;20.42;100.00
39141;BME280;24875;48.436;10.298;2023-08-01T00:15:07;95374.00;;;20.57;100.00
39141;BME280;24875;48.436;10.298;2023-08-01T00:17:33;95378.91;;;20.28;100.00
39141;BME280;24875;48.436;10.298;2023-08-01T00:20:00;95380.78;;;20.28;100.00
39141;BME280;24875;48.436;10.298;2023-08-01T00:22:27;95370.66;;;20.35;100.00
39141;BME280;24875;48.436;10.298;2023-08-01T00:24:54;95369.34;;;20.37;100.00
39141;BME280;24875;48.436;10.298;2023-08-01T00:27:20;95363.19;;;20.37;100.00
39141;BME280;24875;48.436;10.298;2023-08-01T00:29:47;95364.28;;;20.41;100.00
39141;BME280;24875;48.436;10.298;2023-08-01T00:32:15;95358.00;;;20.67;100.00
39141;BME280;24875;48.436;10.298;2023-08-01T00:34:41;95365.31;;;20.35;100.00
39141;BME280;24875;48.436;10.298;2023-08-01T00:37:08;95364.81;;;20.43;100.00
39141;BME280;24875;48.436;10.298;2023-08-01T00:39:34;95363.22;;;20.42;100.00
39141;BME280;24875;48.436;10.298;2023-08-01T00:42:01;95369.09;;;20.44;100.00
39141;BME280;24875;48.436;10.298;2023-08-01T00:44:27;95353.81;;;20.34;100.00
39141;BME280;24875;48.436;10.298;2023-08-01T00:46:54;95356.56;;;20.44;100.00
39141;BME280;24875;48.436;10.298;2023-08-01T00:49:21;95345.72;;;20.71;100.00
39141;BME280;24875;48.436;10.298;2023-08-01T00:51:48;95349.88;;;20.52;100.00
39141;BME280;24875;48.436;10.298;2023-08-01T00:54:15;95336.50;;;20.47;100.00
39141;BME280;24875;48.436;10.298;2023-08-01T00:56:41;95335.38;;;20.43;100.00
39141;BME280;24875;48.436;10.298;2023-08-01T00:59:08;95329.47;;;20.36;100.00
39141;BME280;24875;48.436;10.298;2023-08-01T01:01:34;95332.13;;;20.36;100.00
39141;BME280;24875;48.436;10.298;2023-08-01T01:04:01;95313.16;;;20.37;100.00
39141;BME280;24875;48.436;10.298;2023-08-01T01:06:32;95316.25;;;20.71;100.00
39141;BME280;24875;48.436;10.298;2023-08-01T01:08:59;95316.41;;;20.44;100.00
39141;BME280;24875;48.436;10.298;2023-08-01T01:11:25;95319.34;;;20.48;100.00
39141;BME280;24875;48.436;10.298;2023-08-01T01:13:53;95306.19;;;20.41;100.00
39141;BME280;24875;48.436;10.298;2023-08-01T01:16:19;95304.38;;;20.47;100.00
39141;BME280;24875;48.436;10.298;2023-08-01T01:18:46;95297.91;;;20.38;100.00
39141;BME280;24875;48.436;10.298;2023-08-01T01:21:14;95284.84;;;20.51;100.00
39141;BME280;24875;48.436;10.298;2023-08-01T01:23:40;95289.47;;;20.15;100.00
39141;BME280;24875;48.436;10.298;2023-08-01T01:26:08;95292.72;;;20.21;100.00
39141;BME280;24875;48.436;10.298;2023-08-01T01:28:36;95282.81;;;20.22;100.00
39141;BME280;24875;48.436;10.298;2023-08-01T01:31:03;95282.22;;;20.10;100.00
39141;BME280;24875;48.436;10.298;2023-08-01T01:33:30;95276.56;;;20.07;100.00
39141;BME280;24875;48.436;10.298;2023-08-01T01:35:56;95271.22;;;20.07;100.00
39141;BME280;24875;48.436;10.298;2023-08-01T01:38:24;95260.91;;;20.30;100.00
39141;BME280;24875;48.436;10.298;2023-08-01T01:40:50;95257.88;;;20.12;100.00
39141;BME280;24875;48.436;10.298;2023-08-01T01:43:17;95251.91;;;19.95;100.00
39141;BME280;24875;48.436;10.298;2023-08-01T01:45:43;95251.16;;;20.04;100.00
39141;BME280;24875;48.436;10.298;2023-08-01T01:48:10;95245.34;;;20.17;100.00
39141;BME280;24875;48.436;10.298;2023-08-01T01:50:36;95244.78;;;20.10;100.00
39141;BME280;24875;48.436;10.298;2023-08-01T01:53:03;95229.31;;;20.22;100.00
39141;BME280;24875;48.436;10.298;2023-08-01T01:55:31;95221.41;;;20.47;100.00
39141;BME280;24875;48.436;10.298;2023-08-01T01:57:57;95234.94;;;20.20;100.00
39141;BME280;24875;48.436;10.298;2023-08-01T02:00:24;95229.91;;;20.29;100.00
39141;BME280;24875;48.436;10.298;2023-08-01T02:02:50;95228.25;;;20.23;100.00
39141;BME280;24875;48.436;10.298;2023-08-01T02:05:17;95239.97;;;20.17;100.00
39141;BME280;24875;48.436;10.298;2023-08-01T02:07:43;95249.94;;;20.26;100.00
39141;BME280;24875;48.436;10.298;2023-08-01T02:10:10;95259.88;;;19.90;100.00
39141;BME280;24875;48.436;10.298;2023-08-01T02:12:37;95249.94;;;20.26;100.00
39141;BME280;24875;48.436;10.298;2023-08-01T02:15:05;95255.06;;;19.92;100.00
39141;BME280;24875;48.436;10.298;2023-08-01T02:17:31;95256.38;;;19.89;100.00
39141;BME280;24875;48.436;10.298;2023-08-01T02:19:58;95252.63;;;19.90;100.00
39141;BME280;24875;48.436;10.298;2023-08-01T02:22:25;95253.84;;;20.09;100.00
39141;BME280;24875;48.436;10.298;2023-08-01T02:24:51;95246.78;;;19.93;100.00
39141;BME280;24875;48.436;10.298;2023-08-01T02:27:18;95245.47;;;19.91;100.00
39141;BME280;24875;48.436;10.298;2023-08-01T02:29:46;95251.72;;;20.06;100.00
39141;BME280;24875;48.436;10.298;2023-08-01T02:32:12;95256.38;;;19.89;100.00
39141;BME280;24875;48.436;10.298;2023-08-01T02:34:38;95245.06;;;19.77;100.00
39141;BME280;24875;48.436;10.298;2023-08-01T02:37:05;95244.38;;;19.92;100.00
39141;BME280;24875;48.436;10.298;2023-08-01T02:39:32;95241.91;;;19.85;100.00
39141;BME280;24875;48.436;10.298;2023-08-01T02:41:58;95238.91;;;19.77;100.00
39141;BME280;24875;48.436;10.298;2023-08-01T02:44:26;95230.75;;;19.93;100.00
39141;BME280;24875;48.436;10.298;2023-08-01T02:46:54;95237.66;;;19.89;100.00
39141;BME280;24875;48.436;10.298;2023-08-01T02:49:20;95225.25;;;19.73;100.00
39141;BME280;24875;48.436;10.298;2023-08-01T02:51:47;95218.56;;;19.71;100.00
39141;BME280;24875;48.436;10.298;2023-08-01T02:54:13;95209.19;;;19.68;100.00
39141;BME280;24875;48.436;10.298;2023-08-01T02:56:40;95216.63;;;19.66;100.00
39141;BME280;24875;48.436;10.298;2023-08-01T02:59:07;95223.28;;;19.59;100.00
39141;BME280;24875;48.436;10.298;2023-08-01T03:01:33;95211.81;;;19.63;100.00
39141;BME280;24875;48.436;10.298;2023-08-01T03:04:01;95223.84;;;19.66;100.00
39141;BME280;24875;48.436;10.298;2023-08-01T03:06:29;95206.00;;;19.76;100.00
39141;BME280;24875;48.436;10.298;2023-08-01T03:08:55;95231.00;;;19.56;100.00
39141;BME280;24875;48.436;10.298;2023-08-01T03:11:22;95217.38;;;19.57;100.00
39141;BME280;24875;48.436;10.298;2023-08-01T03:13:48;95200.16;;;19.43;100.00
39141;BME280;24875;48.436;10.298;2023-08-01T03:16:15;95199.06;;;19.39;100.00
39141;BME280;24875;48.436;10.298;2023-08-01T03:18:42;95185.91;;;19.28;100.00
39141;BME280;24875;48.436;10.298;2023-08-01T03:21:10;95181.53;;;19.53;100.00
39141;BME280;24875;48.436;10.298;2023-08-01T03:23:37;95193.88;;;19.23;100.00
39141;BME280;24875;48.436;10.298;2023-08-01T03:26:03;95180.19;;;19.51;100.00
39141;BME280;24875;48.436;10.298;2023-08-01T03:28:30;95175.59;;;19.41;100.00
39141;BME280;24875;48.436;10.298;2023-08-01T03:30:56;95180.03;;;19.31;100.00
39141;BME280;24875;48.436;10.298;2023-08-01T03:33:22;95193.38;;;19.31;100.00
39141;BME280;24875;48.436;10.298;2023-08-01T03:35:49;95191.28;;;19.33;100.00
39141;BME280;24875;48.436;10.298;2023-08-01T03:38:17;95180.94;;;19.41;100.00
39141;BME280;24875;48.436;10.298;2023-08-01T03:40:43;95181.81;;;19.20;100.00
39141;BME280;24875;48.436;10.298;2023-08-01T03:43:10;95187.38;;;19.14;100.00
39141;BME280;24875;48.436;10.298;2023-08-01T03:45:36;95184.72;;;19.14;100.00
39141;BME280;24875;48.436;10.298;2023-08-01T03:48:03;95176.16;;;19.12;100.00
39141;BME280;24875;48.436;10.298;2023-08-01T03:50:29;95168.25;;;19.27;100.00
39141;BME280;24875;48.436;10.298;2023-08-01T03:52:56;95162.41;;;19.30;100.00
39141;BME280;24875;48.436;10.298;2023-08-01T03:55:24;95171.91;;;19.52;100.00
39141;BME280;24875;48.436;10.298;2023-08-01T03:57:50;95158.44;;;19.37;100.00
39141;BME280;24875;48.436;10.298;2023-08-01T04:00:16;95165.13;;;19.35;100.00
39141;BME280;24875;48.436;10.298;2023-08-01T04:02:44;95165.75;;;19.47;100.00
39141;BME280;24875;48.436;10.298;2023-08-01T04:05:10;95165.63;;;19.32;100.00
39141;BME280;24875;48.436;10.298;2023-08-01T04:07:37;95165.56;;;19.58;100.00
39141;BME280;24875;48.436;10.298;2023-08-01T04:10:05;95167.94;;;19.55;100.00
39141;BME280;24875;48.436;10.298;2023-08-01T04:12:34;95156.97;;;19.56;100.00
39141;BME280;24875;48.436;10.298;2023-08-01T04:15:00;95168.94;;;19.44;100.00
39141;BME280;24875;48.436;10.298;2023-08-01T04:17:27;95160.34;;;19.42;100.00
39141;BME280;24875;48.436;10.298;2023-08-01T04:19:54;95169.94;;;19.38;100.00
39141;BME280;24875;48.436;10.298;2023-08-01T04:22:21;95169.56;;;19.60;100.00
39141;BME280;24875;48.436;10.298;2023-08-01T04:24:47;95176.53;;;19.61;100.00
39141;BME280;24875;48.436;10.298;2023-08-01T04:27:14;95173.16;;;19.40;100.00
39141;BME280;24875;48.436;10.298;2023-08-01T04:29:41;95184.56;;;19.66;100.00
39141;BME280;24875;48.436;10.298;2023-08-01T04:32:08;95174.91;;;19.60;100.00
39141;BME280;24875;48.436;10.298;2023-08-01T04:34:38;95172.19;;;19.51;100.00
39141;BME280;24875;48.436;10.298;2023-08-01T04:37:04;95166.97;;;19.70;100.00
39141;BME280;24875;48.436;10.298;2023-08-01T04:39:31;95168.00;;;19.64;100.00
39141;BME280;24875;48.436;10.298;2023-08-01T04:41:57;95170.44;;;19.71;100.00
39141;BME280;24875;48.436;10.298;2023-08-01T04:44:24;95173.06;;;19.66;100.00
39141;BME280;24875;48.436;10.298;2023-08-01T04:46:51;95173.25;;;19.96;100.00
39141;BME280;24875;48.436;10.298;2023-08-01T04:49:18;95187.06;;;19.42;100.00
39141;BME280;24875;48.436;10.298;2023-08-01T04:51:44;95185.94;;;19.33;100.00
39141;BME280;24875;48.436;10.298;2023-08-01T04:54:11;95185.41;;;19.36;100.00
39141;BME280;24875;48.436;10.298;2023-08-01T04:56:37;95182.88;;;19.51;100.00
39141;BME280;24875;48.436;10.298;2023-08-01T04:59:04;95180.06;;;19.36;100.00
39141;BME280;24875;48.436;10.298;2023-08-01T05:01:31;95167.97;;;19.59;100.00
39141;BME280;24875;48.436;10.298;2023-08-01T05:03:58;95160.75;;;20.01;100.00
39141;BME280;24875;48.436;10.298;2023-08-01T05:06:25;95152.00;;;19.69;100.00
39141;BME280;24875;48.436;10.298;2023-08-01T05:08:53;95155.41;;;19.65;100.00
39141;BME280;24875;48.436;10.298;2023-08-01T05:11:19;95153.88;;;19.74;100.00
39141;BME280;24875;48.436;10.298;2023-08-01T05:13:46;95138.28;;;19.97;100.00
39141;BME280;24875;48.436;10.298;2023-08-01T05:16:12;95136.81;;;19.80;100.00
39141;BME280;24875;48.436;10.298;2023-08-01T05:18:39;95129.75;;;20.05;100.00
39141;BME280;24875;48.436;10.298;2023-08-01T05:21:06;95124.41;;;20.10;100.00
39141;BME280;24875;48.436;10.298;2023-08-01T05:23:33;95110.38;;;19.83;100.00
39141;BME280;24875;48.436;10.298;2023-08-01T05:25:59;95091.91;;;19.87;100.00
39141;BME280;24875;48.436;10.298;2023-08-01T05:28:26;95092.84;;;20.02;100.00
39141;BME280;24875;48.436;10.298;2023-08-01T05:30:52;95087.47;;;20.02;100.00
39141;BME280;24875;48.436;10.298;2023-08-01T05:33:19;95080.16;;;19.88;100.00
39141;BME280;24875;48.436;10.298;2023-08-01T05:35:45;95072.69;;;19.90;100.00
39141;BME280;24875;48.436;10.298;2023-08-01T05:38:13;95056.50;;;20.26;100.00
39141;BME280;24875;48.436;10.298;2023-08-01T05:40:39;95034.44;;;19.89;100.00
39141;BME280;24875;48.436;10.298;2023-08-01T05:43:06;95023.72;;;19.79;100.00
39141;BME280;24875;48.436;10.298;2023-08-01T05:45:33;95019.00;;;19.96;100.00
39141;BME280;24875;48.436;10.298;2023-08-01T05:48:00;95033.16;;;19.97;100.00
39141;BME280;24875;48.436;10.298;2023-08-01T05:50:27;95046.28;;;20.03;100.00
39141;BME280;24875;48.436;10.298;2023-08-01T05:52:53;95038.78;;;19.95;100.00
39141;BME280;24875;48.436;10.298;2023-08-01T05:55:21;95044.19;;;20.15;100.00
39141;BME280;24875;48.436;10.298;2023-08-01T05:57:48;95029.34;;;19.88;100.00
39141;BME280;24875;48.436;10.298;2023-08-01T06:00:17;95029.13;;;19.94;100.00
39141;BME280;24875;48.436;10.298;2023-08-01T06:02:44;95037.88;;;19.75;100.00
39141;BME280;24875;48.436;10.298;2023-08-01T06:05:11;95044.13;;;20.00;100.00
39141;BME280;24875;48.436;10.298;2023-08-01T06:07:37;95050.56;;;20.04;100.00
39141;BME280;24875;48.436;10.298;2023-08-01T06:10:04;95065.59;;;20.15;100.00
39141;BME280;24875;48.436;10.298;2023-08-01T06:12:32;95061.34;;;20.49;100.00
39141;BME280;24875;48.436;10.298;2023-08-01T06:14:58;95048.47;;;20.21;100.00
39141;BME280;24875;48.436;10.298;2023-08-01T06:17:25;95057.56;;;20.30;100.00
39141;BME280;24875;48.436;10.298;2023-08-01T06:19:51;95048.47;;;20.21;100.00
39141;BME280;24875;48.436;10.298;2023-08-01T06:22:19;95057.34;;;20.46;100.00
39141;BME280;24875;48.436;10.298;2023-08-01T06:24:46;95060.56;;;20.43;100.00
39141;BME280;24875;48.436;10.298;2023-08-01T06:27:12;95051.25;;;20.85;100.00
39141;BME280;24875;48.436;10.298;2023-08-01T06:29:41;95065.41;;;21.21;100.00
39141;BME280;24875;48.436;10.298;2023-08-01T06:32:08;95066.50;;;21.05;100.00
39141;BME280;24875;48.436;10.298;2023-08-01T06:34:34;95062.19;;;21.09;100.00
39141;BME280;24875;48.436;10.298;2023-08-01T06:37:00;95063.25;;;21.23;100.00
39141;BME280;24875;48.436;10.298;2023-08-01T06:39:27;95068.09;;;21.06;100.00
39141;BME280;24875;48.436;10.298;2023-08-01T06:41:54;95068.88;;;21.16;100.00
39141;BME280;24875;48.436;10.298;2023-08-01T06:44:20;95080.16;;;20.98;100.00
39141;BME280;24875;48.436;10.298;2023-08-01T06:46:48;95081.50;;;21.11;100.00
39141;BME280;24875;48.436;10.298;2023-08-01T06:49:15;95078.28;;;20.84;100.00
39141;BME280;24875;48.436;10.298;2023-08-01T06:51:41;95071.59;;;20.91;100.00
39141;BME280;24875;48.436;10.298;2023-08-01T06:54:08;95068.66;;;21.03;100.00
39141;BME280;24875;48.436;10.298;2023-08-01T06:56:34;95063.81;;;21.15;100.00
39141;BME280;24875;48.436;10.298;2023-08-01T06:59:01;95073.72;;;20.80;100.00
39141;BME280;24875;48.436;10.298;2023-08-01T07:01:27;95051.19;;;20.71;100.00
39141;BME280;24875;48.436;10.298;2023-08-01T07:03:55;95063.03;;;21.04;100.00
39141;BME280;24875;48.436;10.298;2023-08-01T07:06:23;95048.81;;;21.04;100.00
39141;BME280;24875;48.436;10.298;2023-08-01T07:08:49;95055.72;;;20.45;100.00
39141;BME280;24875;48.436;10.298;2023-08-01T07:11:15;95054.16;;;20.64;100.00
39141;BME280;24875;48.436;10.298;2023-08-01T07:13:42;95065.66;;;20.60;100.00
39141;BME280;24875;48.436;10.298;2023-08-01T07:16:09;95073.41;;;20.46;100.00
39141;BME280;24875;48.436;10.298;2023-08-01T07:18:35;95047.19;;;20.48;100.00
39141;BME280;24875;48.436;10.298;2023-08-01T07:21:04;95047.50;;;20.82;100.00
39141;BME280;24875;48.436;10.298;2023-08-01T07:23:33;95042.38;;;20.60;100.00
39141;BME280;24875;48.436;10.298;2023-08-01T07:25:59;95044.75;;;20.57;100.00
39141;BME280;24875;48.436;10.298;2023-08-01T07:28:26;95061.06;;;20.45;100.00
39141;BME280;24875;48.436;10.298;2023-08-01T07:30:58;95058.22;;;20.86;100.00
39141;BME280;24875;48.436;10.298;2023-08-01T07:33:24;95053.34;;;20.64;100.00
39141;BME280;24875;48.436;10.298;2023-08-01T07:35:51;95061.59;;;20.37;100.00
39141;BME280;24875;48.436;10.298;2023-08-01T07:38:19;95063.03;;;20.89;100.00
39141;BME280;24875;48.436;10.298;2023-08-01T07:40:45;95073.19;;;20.73;100.00
39141;BME280;24875;48.436;10.298;2023-08-01T07:43:12;95082.53;;;20.60;100.00
39141;BME280;24875;48.436;10.298;2023-08-01T07:45:39;95083.34;;;20.56;100.00
39141;BME280;24875;48.436;10.298;2023-08-01T07:48:05;95081.72;;;20.55;100.00
39141;BME280;24875;48.436;10.298;2023-08-01T07:50:32;95072.09;;;20.59;100.00
39141;BME280;24875;48.436;10.298;2023-08-01T07:52:58;95073.69;;;20.60;100.00
39141;BME280;24875;48.436;10.298;2023-08-01T07:55:26;95087.09;;;20.65;100.00
39141;BME280;24875;48.436;10.298;2023-08-01T07:57:53;95079.31;;;20.58;100.00
39141;BME280;24875;48.436;10.298;2023-08-01T08:00:19;95089.75;;;20.55;100.00
39141;BME280;24875;48.436;10.298;2023-08-01T08:02:46;95081.75;;;20.70;100.00
39141;BME280;24875;48.436;10.298;2023-08-01T08:05:12;95085.22;;;20.70;100.00
39141;BME280;24875;48.436;10.298;2023-08-01T08:07:39;95101.81;;;20.67;100.00
39141;BME280;24875;48.436;10.298;2023-08-01T08:10:06;95096.19;;;20.64;100.00
39141;BME280;24875;48.436;10.298;2023-08-01T08:12:34;95088.19;;;20.74;100.00
39141;BME280;24875;48.436;10.298;2023-08-01T08:15:01;95088.13;;;20.49;99.45
39141;BME280;24875;48.436;10.298;2023-08-01T08:17:27;95094.06;;;20.76;99.45
39141;BME280;24875;48.436;10.298;2023-08-01T08:19:54;95082.31;;;20.91;100.00
39141;BME280;24875;48.436;10.298;2023-08-01T08:22:20;95087.34;;;20.68;100.00
39141;BME280;24875;48.436;10.298;2023-08-01T08:24:47;95107.72;;;20.74;99.73
39141;BME280;24875;48.436;10.298;2023-08-01T08:27:14;95109.56;;;20.69;99.21
39141;BME280;24875;48.436;10.298;2023-08-01T08:29:42;95080.16;;;21.03;99.33
39141;BME280;24875;48.436;10.298;2023-08-01T08:32:08;95083.09;;;20.92;98.97
39141;BME280;24875;48.436;10.298;2023-08-01T08:34:35;95086.56;;;20.97;98.58
39141;BME280;24875;48.436;10.298;2023-08-01T08:37:02;95092.50;;;21.04;100.00
39141;BME280;24875;48.436;10.298;2023-08-01T08:39:28;95089.78;;;20.80;100.00
39141;BME280;24875;48.436;10.298;2023-08-01T08:41:55;95094.84;;;20.66;100.00
39141;BME280;24875;48.436;10.298;2023-08-01T08:44:21;95088.13;;;20.54;100.00
39141;BME280;24875;48.436;10.298;2023-08-01T08:46:52;95085.25;;;20.95;100.00
39141;BME280;24875;48.436;10.298;2023-08-01T08:49:19;95090.06;;;20.88;100.00
39141;BME280;24875;48.436;10.298;2023-08-01T08:51:46;95088.72;;;20.85;100.00
39141;BME280;24875;48.436;10.298;2023-08-01T08:54:15;95086.84;;;20.86;100.00
39141;BME280;24875;48.436;10.298;2023-08-01T08:56:41;95121.94;;;20.94;100.00
39141;BME280;24875;48.436;10.298;2023-08-01T08:59:08;95120.25;;;20.59;100.00
39141;BME280;24875;48.436;10.298;2023-08-01T09:01:36;95132.59;;;20.65;100.00
39141;BME280;24875;48.436;10.298;2023-08-01T09:04:04;95134.94;;;20.46;100.00
39141;BME280;24875;48.436;10.298;2023-08-01T09:06:32;95129.81;;;20.30;100.00
39141;BME280;24875;48.436;10.298;2023-08-01T09:09:03;95111.28;;;20.14;100.00
39141;BME280;24875;48.436;10.298;2023-08-01T09:11:39;95117.28;;;20.40;100.00
39141;BME280;24875;48.436;10.298;2023-08-01T09:14:07;95113.66;;;19.95;100.00
39141;BME280;24875;48.436;10.298;2023-08-01T09:16:33;95109.88;;;19.91;100.00
39141;BME280;24875;48.436;10.298;2023-08-01T09:19:00;95125.47;;;20.09;100.00
39141;BME280;24875;48.436;10.298;2023-08-01T09:21:31;95119.69;;;20.52;100.00
39141;BME280;24875;48.436;10.298;2023-08-01T09:24:07;95122.88;;;20.39;100.00
39141;BME280;24875;48.436;10.298;2023-08-01T09:26:34;95132.53;;;19.84;100.00
39141;BME280;24875;48.436;10.298;2023-08-01T09:29:00;95126.56;;;20.18;100.00
39141;BME280;24875;48.436;10.298;2023-08-01T09:31:28;95132.47;;;20.15;100.00
39141;BME280;24875;48.436;10.298;2023-08-01T09:33:55;95136.16;;;20.09;100.00
39141;BME280;24875;48.436;10.298;2023-08-01T09:36:22;95130.81;;;20.09;100.00
39141;BME280;24875;48.436;10.298;2023-08-01T09:38:51;95138.28;;;19.97;100.00
39141;BME280;24875;48.436;10.298;2023-08-01T09:41:18;95129.56;;;19.80;100.00
39141;BME280;24875;48.436;10.298;2023-08-01T09:43:46;95119.09;;;19.69;100.00
39141;BME280;24875;48.436;10.298;2023-08-01T09:46:13;95123.47;;;19.39;100.00
39141;BME280;24875;48.436;10.298;2023-08-01T09:48:40;95118.13;;;19.39;100.00
39141;BME280;24875;48.436;10.298;2023-08-01T09:51:07;95057.31;;;19.56;100.00
39141;BME280;24875;48.436;10.298;2023-08-01T09:53:35;94995.38;;;19.73;100.00
39141;BME280;24875;48.436;10.298;2023-08-01T09:56:03;95040.78;;;19.68;100.00
39141;BME280;24875;48.436;10.298;2023-08-01T09:58:32;95074.97;;;19.61;100.00
39141;BME280;24875;48.436;10.298;2023-08-01T10:00:59;95137.91;;;19.38;100.00
39141;BME280;24875;48.436;10.298;2023-08-01T10:03:28;95103.13;;;19.33;100.00
39141;BME280;24875;48.436;10.298;2023-08-01T10:05:55;95103.81;;;19.59;100.00
39141;BME280;24875;48.436;10.298;2023-08-01T10:08:22;95111.31;;;19.21;100.00
39141;BME280;24875;48.436;10.298;2023-08-01T10:10:49;95099.41;;;19.34;100.00
39141;BME280;24875;48.436;10.298;2023-08-01T10:13:20;95110.63;;;19.82;100.00
39141;BME280;24875;48.436;10.298;2023-08-01T10:15:49;95125.03;;;19.76;100.00
39141;BME280;24875;48.436;10.298;2023-08-01T10:18:16;95114.09;;;19.82;100.00
39141;BME280;24875;48.436;10.298;2023-08-01T10:20:43;95113.13;;;19.98;100.00
39141;BME280;24875;48.436;10.298;2023-08-01T10:23:11;95125.34;;;19.89;100.00
39141;BME280;24875;48.436;10.298;2023-08-01T10:25:39;95126.50;;;20.03;100.00
39141;BME280;24875;48.436;10.298;2023-08-01T10:28:06;95116.69;;;20.23;100.00
39141;BME280;24875;48.436;10.298;2023-08-01T10:30:34;95111.75;;;20.77;100.00
39141;BME280;24875;48.436;10.298;2023-08-01T10:33:00;95115.88;;;20.18;100.00
39141;BME280;24875;48.436;10.298;2023-08-01T10:35:34;95128.03;;;20.60;100.00
39141;BME280;24875;48.436;10.298;2023-08-01T10:38:05;95119.13;;;20.35;100.00
39141;BME280;24875;48.436;10.298;2023-08-01T10:40:36;95120.53;;;20.52;100.00
39141;BME280;24875;48.436;10.298;2023-08-01T10:43:02;95110.00;;;20.26;100.00
39141;BME280;24875;48.436;10.298;2023-08-01T10:45:29;95124.41;;;20.10;100.00
39141;BME280;24875;48.436;10.298;2023-08-01T10:48:07;95121.25;;;20.23;100.00
39141;BME280;24875;48.436;10.298;2023-08-01T10:50:34;95116.19;;;19.75;100.00
39141;BME280;24875;48.436;10.298;2023-08-01T10:53:05;95126.03;;;20.21;100.00
39141;BME280;24875;48.436;10.298;2023-08-01T10:55:40;95128.16;;;20.14;100.00
39141;BME280;24875;48.436;10.298;2023-08-01T10:58:06;95129.53;;;19.75;100.00
39141;BME280;24875;48.436;10.298;2023-08-01T11:00:33;95133.47;;;19.58;100.00
39141;BME280;24875;48.436;10.298;2023-08-01T11:02:59;95133.47;;;19.58;100.00
39141;BME280;24875;48.436;10.298;2023-08-01T11:05:27;95132.00;;;19.77;100.00
39141;BME280;24875;48.436;10.298;2023-08-01T11:07:55;95145.41;;;19.46;100.00
39141;BME280;24875;48.436;10.298;2023-08-01T11:10:24;95128.94;;;19.58;100.00
39141;BME280;24875;48.436;10.298;2023-08-01T11:12:51;95151.78;;;19.40;100.00
39141;BME280;24875;48.436;10.298;2023-08-01T11:15:18;95137.50;;;19.24;100.00
39141;BME280;24875;48.436;10.298;2023-08-01T11:17:47;95137.31;;;19.36;100.00
39141;BME280;24875;48.436;10.298;2023-08-01T11:20:15;95137.38;;;19.41;100.00
39141;BME280;24875;48.436;10.298;2023-08-01T11:22:54;95152.91;;;19.44;100.00
39141;BME280;24875;48.436;10.298;2023-08-01T11:25:31;95187.22;;;19.25;100.00
39141;BME280;24875;48.436;10.298;2023-08-01T11:28:01;95182.69;;;19.26;100.00
39141;BME280;24875;48.436;10.298;2023-08-01T11:30:32;95191.84;;;19.35;100.00
39141;BME280;24875;48.436;10.298;2023-08-01T11:32:59;95207.78;;;18.98;100.00
39141;BME280;24875;48.436;10.298;2023-08-01T11:35:25;95200.84;;;18.71;100.00
39141;BME280;24875;48.436;10.298;2023-08-01T11:37:53;95190.09;;;19.19;100.00
39141;BME280;24875;48.436;10.298;2023-08-01T11:40:20;95181.06;;;18.98;100.00
39141;BME280;24875;48.436;10.298;2023-08-01T11:42:48;95187.13;;;19.15;100.00
39141;BME280;24875;48.436;10.298;2023-08-01T11:45:16;95193.84;;;18.92;100.00
39141;BME280;24875;48.436;10.298;2023-08-01T11:47:47;95194.38;;;19.20;100.00
39141;BME280;24875;48.436;10.298;2023-08-01T11:50:13;95175.72;;;18.98;100.00
39141;BME280;24875;48.436;10.298;2023-08-01T11:52:40;95187.72;;;18.96;100.00
39141;BME280;24875;48.436;10.298;2023-08-01T11:55:18;95177.16;;;19.06;100.00
39141;BME280;24875;48.436;10.298;2023-08-01T11:57:51;95176.38;;;19.42;100.00
39141;BME280;24875;48.436;10.298;2023-08-01T12:00:21;95173.34;;;19.28;100.00
39141;BME280;24875;48.436;10.298;2023-08-01T12:02:48;95163.72;;;19.27;100.00
39141;BME280;24875;48.436;10.298;2023-08-01T12:05:21;95172.28;;;19.65;100.00
39141;BME280;24875;48.436;10.298;2023-08-01T12:07:48;95179.72;;;19.22;100.00
39141;BME280;24875;48.436;10.298;2023-08-01T12:10:16;95176.31;;;19.68;100.00
39141;BME280;24875;48.436;10.298;2023-08-01T12:12:44;95182.31;;;19.49;100.00
39141;BME280;24875;48.436;10.298;2023-08-01T12:15:11;95181.72;;;19.42;100.00
39141;BME280;24875;48.436;10.298;2023-08-01T12:17:38;95169.16;;;19.42;100.00
39141;BME280;24875;48.436;10.298;2023-08-01T12:20:05;95166.25;;;19.85;100.00
39141;BME280;24875;48.436;10.298;2023-08-01T12:22:32;95162.75;;;19.79;100.00
39141;BME280;24875;48.436;10.298;2023-08-01T12:24:59;95159.44;;;20.09;100.00
39141;BME280;24875;48.436;10.298;2023-08-01T12:27:27;95158.78;;;20.53;100.00
39141;BME280;24875;48.436;10.298;2023-08-01T12:29:53;95147.47;;;20.31;100.00
39141;BME280;24875;48.436;10.298;2023-08-01T12:32:19;95147.38;;;20.82;100.00
39141;BME280;24875;48.436;10.298;2023-08-01T12:34:46;95135.56;;;20.73;100.00
39141;BME280;24875;48.436;10.298;2023-08-01T12:37:12;95133.13;;;20.72;100.00
39141;BME280;24875;48.436;10.298;2023-08-01T12:39:39;95132.63;;;20.75;100.00